Greenwood Leflore Airport
KGWO : now visible

Airfield :











YOU CAN JOIN US ON...

 
LOGIN :

Register | Disclaimer

   EN    FR    IT 

 









Legend :    VFR   Marginal VFR   IFR   Intensive IFR   Very Intensive IFR
Visi :
Ceiling :
>= 8 km
>= 3000ft
5 to 8 km
1000 to 3000 ft
1500m to 5 km
500 to 1000 ft
800 to 1500m
200 to 500 ft
< 800m
< 200 ft
Symbols :   Thunderstorms  Fog  Heavy snow  Heavy precipitations  Wind > 20 kt






- Airport Elevation : 162 ft


KGWO - Greenwood Leflore

CURRENT METAR :
  • 192053Z AUTO 24004KT 10SM FEW065 29/18 A3005 RMK AO2 SLP173 T02890183 56012

EXPIRED METARs :
  • 191953Z AUTO 24008KT 10SM FEW045 29/19 A3005 RMK AO2 SLP174 T02890189
  • 191853Z AUTO 20009KT 180V240 10SM FEW040 29/19 A3006 RMK AO2 SLP178 T02890194

TAF KGWO
Valid from the 19 at 18:00 until the 20 at 18:00 UTC


191728Z 1918/2018 20011G18KT P6SM SKC
FM200000 16005KT P6SM FEW040 SCT250
KZME FIR / North America



MET'MAP, your aeronautical weather chart ! - Copyright ORBIFLY December 2007 - Disclaimer

ORBIFLY MET'MAP TEAM :

Programming & Development : Alexandra Zaïnal
Concept & original design : Baudouin d'Aumeries
Assistance for programming : Marc-Olivier Méhu
Technical & hardware support : Manuel Goepfert

Contact : metmap@orbifly.com




SOURCES & CREDITS :

   NOAA       Earth
Advisory